sensor_id;sensor_type;location;lat;lon;timestamp;P1;durP1;ratioP1;P2;durP2;ratioP2
4148;SDS011;2088;51.032;7.082;2024-03-08T00:00:04;20.73;;;9.93;;
4148;SDS011;2088;51.032;7.082;2024-03-08T00:02:36;23.93;;;11.30;;
4148;SDS011;2088;51.032;7.082;2024-03-08T00:05:03;21.87;;;8.90;;
4148;SDS011;2088;51.032;7.082;2024-03-08T00:07:30;16.97;;;8.50;;
4148;SDS011;2088;51.032;7.082;2024-03-08T00:09:57;15.40;;;8.57;;
4148;SDS011;2088;51.032;7.082;2024-03-08T00:12:25;24.80;;;9.50;;
4148;SDS011;2088;51.032;7.082;2024-03-08T00:14:52;19.90;;;9.50;;
4148;SDS011;2088;51.032;7.082;2024-03-08T00:17:19;16.53;;;8.47;;
4148;SDS011;2088;51.032;7.082;2024-03-08T00:19:48;18.40;;;8.03;;
4148;SDS011;2088;51.032;7.082;2024-03-08T00:22:16;20.43;;;10.00;;
4148;SDS011;2088;51.032;7.082;2024-03-08T00:24:43;15.00;;;8.60;;
4148;SDS011;2088;51.032;7.082;2024-03-08T00:27:10;16.20;;;9.17;;
4148;SDS011;2088;51.032;7.082;2024-03-08T00:29:37;16.10;;;7.97;;
4148;SDS011;2088;51.032;7.082;2024-03-08T00:32:05;16.50;;;8.40;;
4148;SDS011;2088;51.032;7.082;2024-03-08T00:34:34;19.03;;;9.00;;
4148;SDS011;2088;51.032;7.082;2024-03-08T00:37:04;21.47;;;9.50;;
4148;SDS011;2088;51.032;7.082;2024-03-08T00:39:31;15.33;;;9.53;;
4148;SDS011;2088;51.032;7.082;2024-03-08T00:41:58;18.03;;;9.43;;
4148;SDS011;2088;51.032;7.082;2024-03-08T00:44:25;16.03;;;8.30;;
4148;SDS011;2088;51.032;7.082;2024-03-08T00:46:52;13.33;;;8.17;;
4148;SDS011;2088;51.032;7.082;2024-03-08T00:49:19;19.37;;;8.47;;
4148;SDS011;2088;51.032;7.082;2024-03-08T00:51:46;17.00;;;9.00;;
4148;SDS011;2088;51.032;7.082;2024-03-08T00:54:15;18.03;;;10.40;;
4148;SDS011;2088;51.032;7.082;2024-03-08T00:56:42;23.47;;;10.60;;
4148;SDS011;2088;51.032;7.082;2024-03-08T00:59:11;18.77;;;9.37;;
4148;SDS011;2088;51.032;7.082;2024-03-08T01:01:39;22.80;;;9.60;;
4148;SDS011;2088;51.032;7.082;2024-03-08T01:04:06;15.33;;;8.73;;
4148;SDS011;2088;51.032;7.082;2024-03-08T01:06:33;26.20;;;10.37;;
4148;SDS011;2088;51.032;7.082;2024-03-08T01:09:01;16.03;;;9.47;;
4148;SDS011;2088;51.032;7.082;2024-03-08T01:11:29;26.50;;;9.90;;
4148;SDS011;2088;51.032;7.082;2024-03-08T01:13:56;17.77;;;9.17;;
4148;SDS011;2088;51.032;7.082;2024-03-08T01:16:23;17.90;;;9.40;;
4148;SDS011;2088;51.032;7.082;2024-03-08T01:18:50;20.40;;;9.77;;
4148;SDS011;2088;51.032;7.082;2024-03-08T01:21:17;16.43;;;8.60;;
4148;SDS011;2088;51.032;7.082;2024-03-08T01:23:45;14.77;;;8.20;;
4148;SDS011;2088;51.032;7.082;2024-03-08T01:26:12;16.83;;;9.77;;
4148;SDS011;2088;51.032;7.082;2024-03-08T01:28:41;17.23;;;8.60;;
4148;SDS011;2088;51.032;7.082;2024-03-08T01:31:08;18.90;;;9.97;;
4148;SDS011;2088;51.032;7.082;2024-03-08T01:33:37;19.70;;;9.13;;
4148;SDS011;2088;51.032;7.082;2024-03-08T01:36:05;17.57;;;9.07;;
4148;SDS011;2088;51.032;7.082;2024-03-08T01:38:32;18.07;;;9.40;;
4148;SDS011;2088;51.032;7.082;2024-03-08T01:41:01;22.30;;;9.53;;
4148;SDS011;2088;51.032;7.082;2024-03-08T01:43:29;21.43;;;9.47;;
4148;SDS011;2088;51.032;7.082;2024-03-08T01:45:57;19.20;;;8.80;;
4148;SDS011;2088;51.032;7.082;2024-03-08T01:48:25;18.50;;;9.77;;
4148;SDS011;2088;51.032;7.082;2024-03-08T01:50:52;24.00;;;9.93;;
4148;SDS011;2088;51.032;7.082;2024-03-08T01:53:20;16.43;;;8.97;;
4148;SDS011;2088;51.032;7.082;2024-03-08T01:55:48;17.37;;;9.63;;
4148;SDS011;2088;51.032;7.082;2024-03-08T01:58:15;26.63;;;11.13;;
4148;SDS011;2088;51.032;7.082;2024-03-08T02:00:47;28.53;;;10.20;;
4148;SDS011;2088;51.032;7.082;2024-03-08T02:03:16;22.07;;;9.13;;
4148;SDS011;2088;51.032;7.082;2024-03-08T02:05:44;22.50;;;9.77;;
4148;SDS011;2088;51.032;7.082;2024-03-08T02:08:11;21.50;;;8.33;;
4148;SDS011;2088;51.032;7.082;2024-03-08T02:10:39;19.00;;;8.70;;
4148;SDS011;2088;51.032;7.082;2024-03-08T02:13:06;21.07;;;9.80;;
4148;SDS011;2088;51.032;7.082;2024-03-08T02:15:52;22.10;;;10.93;;
4148;SDS011;2088;51.032;7.082;2024-03-08T02:18:21;22.83;;;9.93;;
4148;SDS011;2088;51.032;7.082;2024-03-08T02:20:50;18.73;;;9.77;;
4148;SDS011;2088;51.032;7.082;2024-03-08T02:23:18;19.00;;;10.93;;
4148;SDS011;2088;51.032;7.082;2024-03-08T02:25:45;19.63;;;10.00;;
4148;SDS011;2088;51.032;7.082;2024-03-08T02:28:12;18.87;;;9.30;;
4148;SDS011;2088;51.032;7.082;2024-03-08T02:30:39;23.50;;;9.83;;
4148;SDS011;2088;51.032;7.082;2024-03-08T02:33:07;20.50;;;9.90;;
4148;SDS011;2088;51.032;7.082;2024-03-08T02:35:35;28.40;;;10.43;;
4148;SDS011;2088;51.032;7.082;2024-03-08T02:38:03;18.87;;;9.40;;
4148;SDS011;2088;51.032;7.082;2024-03-08T02:40:31;19.63;;;9.80;;
4148;SDS011;2088;51.032;7.082;2024-03-08T02:42:58;16.30;;;9.17;;
4148;SDS011;2088;51.032;7.082;2024-03-08T02:45:25;19.20;;;9.70;;
4148;SDS011;2088;51.032;7.082;2024-03-08T02:47:52;19.50;;;10.07;;
4148;SDS011;2088;51.032;7.082;2024-03-08T02:50:19;22.73;;;8.97;;
4148;SDS011;2088;51.032;7.082;2024-03-08T02:52:47;21.83;;;11.00;;
4148;SDS011;2088;51.032;7.082;2024-03-08T02:55:15;22.00;;;10.87;;
4148;SDS011;2088;51.032;7.082;2024-03-08T02:57:42;17.20;;;8.90;;
4148;SDS011;2088;51.032;7.082;2024-03-08T03:00:12;27.90;;;11.10;;
4148;SDS011;2088;51.032;7.082;2024-03-08T03:02:40;20.07;;;9.73;;
4148;SDS011;2088;51.032;7.082;2024-03-08T03:05:08;19.10;;;8.43;;
4148;SDS011;2088;51.032;7.082;2024-03-08T03:07:36;20.90;;;8.60;;
4148;SDS011;2088;51.032;7.082;2024-03-08T03:10:04;14.50;;;8.60;;
4148;SDS011;2088;51.032;7.082;2024-03-08T03:12:33;15.10;;;9.00;;
4148;SDS011;2088;51.032;7.082;2024-03-08T03:15:00;18.00;;;10.47;;
4148;SDS011;2088;51.032;7.082;2024-03-08T03:17:27;19.13;;;10.00;;
4148;SDS011;2088;51.032;7.082;2024-03-08T03:19:55;18.03;;;9.20;;
4148;SDS011;2088;51.032;7.082;2024-03-08T03:22:22;18.83;;;9.30;;
4148;SDS011;2088;51.032;7.082;2024-03-08T03:24:50;18.37;;;7.90;;
4148;SDS011;2088;51.032;7.082;2024-03-08T03:27:18;13.80;;;8.70;;
4148;SDS011;2088;51.032;7.082;2024-03-08T03:29:46;19.60;;;10.00;;
4148;SDS011;2088;51.032;7.082;2024-03-08T03:32:14;17.17;;;8.83;;
4148;SDS011;2088;51.032;7.082;2024-03-08T03:34:44;17.83;;;9.27;;
4148;SDS011;2088;51.032;7.082;2024-03-08T03:37:11;20.03;;;8.67;;
4148;SDS011;2088;51.032;7.082;2024-03-08T03:39:38;23.00;;;9.97;;
4148;SDS011;2088;51.032;7.082;2024-03-08T03:42:13;15.23;;;7.80;;
4148;SDS011;2088;51.032;7.082;2024-03-08T03:44:41;24.40;;;9.70;;
4148;SDS011;2088;51.032;7.082;2024-03-08T03:47:10;24.73;;;9.97;;
4148;SDS011;2088;51.032;7.082;2024-03-08T03:49:37;25.47;;;9.60;;
4148;SDS011;2088;51.032;7.082;2024-03-08T03:52:04;21.20;;;10.73;;
4148;SDS011;2088;51.032;7.082;2024-03-08T03:54:31;18.90;;;8.73;;
4148;SDS011;2088;51.032;7.082;2024-03-08T03:56:59;17.27;;;8.50;;
4148;SDS011;2088;51.032;7.082;2024-03-08T03:59:26;19.00;;;9.57;;
4148;SDS011;2088;51.032;7.082;2024-03-08T04:01:53;18.87;;;9.83;;
4148;SDS011;2088;51.032;7.082;2024-03-08T04:04:21;23.93;;;9.60;;
4148;SDS011;2088;51.032;7.082;2024-03-08T04:06:49;20.60;;;9.03;;
4148;SDS011;2088;51.032;7.082;2024-03-08T04:09:16;19.90;;;8.83;;
4148;SDS011;2088;51.032;7.082;2024-03-08T04:11:44;21.17;;;9.37;;
4148;SDS011;2088;51.032;7.082;2024-03-08T04:14:11;22.10;;;9.73;;
4148;SDS011;2088;51.032;7.082;2024-03-08T04:16:38;21.47;;;10.40;;
4148;SDS011;2088;51.032;7.082;2024-03-08T04:19:05;19.07;;;8.53;;
4148;SDS011;2088;51.032;7.082;2024-03-08T04:21:34;23.67;;;9.00;;
4148;SDS011;2088;51.032;7.082;2024-03-08T04:24:01;23.93;;;10.67;;
4148;SDS011;2088;51.032;7.082;2024-03-08T04:26:29;21.53;;;9.27;;
4148;SDS011;2088;51.032;7.082;2024-03-08T04:28:56;17.30;;;9.10;;
4148;SDS011;2088;51.032;7.082;2024-03-08T04:31:23;20.57;;;9.20;;
4148;SDS011;2088;51.032;7.082;2024-03-08T04:33:51;21.70;;;9.00;;
4148;SDS011;2088;51.032;7.082;2024-03-08T04:36:18;21.27;;;9.90;;
4148;SDS011;2088;51.032;7.082;2024-03-08T04:38:47;20.73;;;9.87;;
4148;SDS011;2088;51.032;7.082;2024-03-08T04:41:14;19.70;;;8.90;;
4148;SDS011;2088;51.032;7.082;2024-03-08T04:43:41;21.83;;;9.57;;
4148;SDS011;2088;51.032;7.082;2024-03-08T04:46:08;17.00;;;9.27;;
4148;SDS011;2088;51.032;7.082;2024-03-08T04:48:35;22.43;;;10.07;;
4148;SDS011;2088;51.032;7.082;2024-03-08T04:51:02;22.50;;;9.93;;
4148;SDS011;2088;51.032;7.082;2024-03-08T04:53:30;14.23;;;7.97;;
4148;SDS011;2088;51.032;7.082;2024-03-08T04:56:00;24.30;;;8.60;;
4148;SDS011;2088;51.032;7.082;2024-03-08T04:58:31;21.40;;;10.10;;
4148;SDS011;2088;51.032;7.082;2024-03-08T05:00:59;21.57;;;10.60;;
4148;SDS011;2088;51.032;7.082;2024-03-08T05:03:26;20.70;;;10.03;;
4148;SDS011;2088;51.032;7.082;2024-03-08T05:05:54;20.20;;;9.63;;
4148;SDS011;2088;51.032;7.082;2024-03-08T05:08:21;24.33;;;10.67;;
4148;SDS011;2088;51.032;7.082;2024-03-08T05:10:48;15.17;;;8.10;;
4148;SDS011;2088;51.032;7.082;2024-03-08T05:13:16;21.90;;;11.37;;
4148;SDS011;2088;51.032;7.082;2024-03-08T05:15:43;23.60;;;10.60;;
4148;SDS011;2088;51.032;7.082;2024-03-08T05:18:10;24.43;;;10.70;;
4148;SDS011;2088;51.032;7.082;2024-03-08T05:20:39;19.83;;;9.30;;
4148;SDS011;2088;51.032;7.082;2024-03-08T05:23:06;19.63;;;8.90;;
4148;SDS011;2088;51.032;7.082;2024-03-08T05:25:34;19.50;;;9.30;;
4148;SDS011;2088;51.032;7.082;2024-03-08T05:28:01;24.60;;;11.17;;
4148;SDS011;2088;51.032;7.082;2024-03-08T05:30:30;20.00;;;10.00;;
4148;SDS011;2088;51.032;7.082;2024-03-08T05:32:57;22.53;;;9.37;;
4148;SDS011;2088;51.032;7.082;2024-03-08T05:35:25;26.17;;;11.00;;
4148;SDS011;2088;51.032;7.082;2024-03-08T05:37:52;24.30;;;9.77;;
4148;SDS011;2088;51.032;7.082;2024-03-08T05:40:19;30.43;;;9.93;;
4148;SDS011;2088;51.032;7.082;2024-03-08T05:42:46;15.80;;;8.90;;
4148;SDS011;2088;51.032;7.082;2024-03-08T05:45:13;26.40;;;9.47;;
4148;SDS011;2088;51.032;7.082;2024-03-08T05:47:42;18.63;;;9.33;;
4148;SDS011;2088;51.032;7.082;2024-03-08T05:50:09;21.60;;;10.47;;
4148;SDS011;2088;51.032;7.082;2024-03-08T05:52:36;21.20;;;9.40;;
4148;SDS011;2088;51.032;7.082;2024-03-08T05:55:04;21.17;;;10.90;;
4148;SDS011;2088;51.032;7.082;2024-03-08T05:57:32;19.27;;;9.40;;
4148;SDS011;2088;51.032;7.082;2024-03-08T05:59:59;28.07;;;9.93;;
4148;SDS011;2088;51.032;7.082;2024-03-08T06:02:26;23.90;;;10.20;;
4148;SDS011;2088;51.032;7.082;2024-03-08T06:04:54;21.03;;;10.33;;
4148;SDS011;2088;51.032;7.082;2024-03-08T06:07:21;19.43;;;10.23;;
4148;SDS011;2088;51.032;7.082;2024-03-08T06:09:48;20.87;;;10.83;;
4148;SDS011;2088;51.032;7.082;2024-03-08T06:12:16;25.40;;;11.30;;
4148;SDS011;2088;51.032;7.082;2024-03-08T06:14:43;20.07;;;10.20;;
4148;SDS011;2088;51.032;7.082;2024-03-08T06:17:10;22.10;;;8.87;;
4148;SDS011;2088;51.032;7.082;2024-03-08T06:19:37;17.30;;;8.80;;
4148;SDS011;2088;51.032;7.082;2024-03-08T06:22:05;22.03;;;10.00;;
4148;SDS011;2088;51.032;7.082;2024-03-08T06:24:33;20.60;;;9.93;;
4148;SDS011;2088;51.032;7.082;2024-03-08T06:27:01;17.70;;;8.17;;
4148;SDS011;2088;51.032;7.082;2024-03-08T06:29:28;28.93;;;9.10;;
4148;SDS011;2088;51.032;7.082;2024-03-08T06:31:56;21.60;;;9.43;;
4148;SDS011;2088;51.032;7.082;2024-03-08T06:34:23;30.63;;;11.30;;
4148;SDS011;2088;51.032;7.082;2024-03-08T06:36:50;22.67;;;10.37;;
4148;SDS011;2088;51.032;7.082;2024-03-08T06:39:18;20.60;;;8.93;;
4148;SDS011;2088;51.032;7.082;2024-03-08T06:41:50;20.10;;;9.90;;
4148;SDS011;2088;51.032;7.082;2024-03-08T06:44:17;20.37;;;10.00;;
4148;SDS011;2088;51.032;7.082;2024-03-08T06:46:46;21.57;;;10.30;;
4148;SDS011;2088;51.032;7.082;2024-03-08T06:49:14;22.00;;;8.83;;
4148;SDS011;2088;51.032;7.082;2024-03-08T06:51:41;24.20;;;10.20;;
4148;SDS011;2088;51.032;7.082;2024-03-08T06:54:08;21.00;;;9.33;;
4148;SDS011;2088;51.032;7.082;2024-03-08T06:56:36;26.30;;;11.93;;
4148;SDS011;2088;51.032;7.082;2024-03-08T06:59:03;22.47;;;10.93;;
4148;SDS011;2088;51.032;7.082;2024-03-08T07:01:31;29.30;;;11.20;;
4148;SDS011;2088;51.032;7.082;2024-03-08T07:03:59;25.87;;;10.70;;
4148;SDS011;2088;51.032;7.082;2024-03-08T07:06:30;25.77;;;11.10;;
4148;SDS011;2088;51.032;7.082;2024-03-08T07:08:58;18.90;;;9.10;;
4148;SDS011;2088;51.032;7.082;2024-03-08T07:11:26;23.30;;;11.60;;
4148;SDS011;2088;51.032;7.082;2024-03-08T07:13:54;23.53;;;10.00;;
4148;SDS011;2088;51.032;7.082;2024-03-08T07:16:22;24.07;;;11.73;;
4148;SDS011;2088;51.032;7.082;2024-03-08T07:18:50;28.40;;;11.30;;
4148;SDS011;2088;51.032;7.082;2024-03-08T07:21:17;21.17;;;10.10;;
4148;SDS011;2088;51.032;7.082;2024-03-08T07:23:45;21.97;;;9.57;;
4148;SDS011;2088;51.032;7.082;2024-03-08T07:26:19;24.13;;;11.10;;
4148;SDS011;2088;51.032;7.082;2024-03-08T07:28:46;29.93;;;10.23;;
4148;SDS011;2088;51.032;7.082;2024-03-08T07:31:15;21.93;;;10.23;;
4148;SDS011;2088;51.032;7.082;2024-03-08T07:33:46;22.60;;;9.33;;
4148;SDS011;2088;51.032;7.082;2024-03-08T07:36:15;22.07;;;10.50;;
4148;SDS011;2088;51.032;7.082;2024-03-08T07:38:42;21.17;;;9.93;;
4148;SDS011;2088;51.032;7.082;2024-03-08T07:41:11;18.17;;;9.03;;
4148;SDS011;2088;51.032;7.082;2024-03-08T07:43:39;21.20;;;10.13;;
4148;SDS011;2088;51.032;7.082;2024-03-08T07:46:05;16.13;;;9.83;;
4148;SDS011;2088;51.032;7.082;2024-03-08T07:48:36;29.40;;;10.23;;
4148;SDS011;2088;51.032;7.082;2024-03-08T07:51:05;22.40;;;10.67;;
4148;SDS011;2088;51.032;7.082;2024-03-08T07:53:34;18.63;;;8.83;;
4148;SDS011;2088;51.032;7.082;2024-03-08T07:56:01;22.77;;;10.20;;
4148;SDS011;2088;51.032;7.082;2024-03-08T07:58:30;18.67;;;9.60;;
4148;SDS011;2088;51.032;7.082;2024-03-08T08:00:57;24.33;;;10.67;;
4148;SDS011;2088;51.032;7.082;2024-03-08T08:03:24;19.50;;;9.37;;
4148;SDS011;2088;51.032;7.082;2024-03-08T08:05:53;22.30;;;10.63;;
4148;SDS011;2088;51.032;7.082;2024-03-08T08:08:20;18.80;;;9.90;;
4148;SDS011;2088;51.032;7.082;2024-03-08T08:10:47;20.30;;;9.77;;
4148;SDS011;2088;51.032;7.082;2024-03-08T08:13:14;23.87;;;10.60;;
4148;SDS011;2088;51.032;7.082;2024-03-08T08:15:43;23.03;;;9.77;;
4148;SDS011;2088;51.032;7.082;2024-03-08T08:18:10;22.40;;;9.87;;
4148;SDS011;2088;51.032;7.082;2024-03-08T08:20:39;21.03;;;10.33;;
4148;SDS011;2088;51.032;7.082;2024-03-08T08:23:07;23.47;;;10.17;;
4148;SDS011;2088;51.032;7.082;2024-03-08T08:25:37;21.43;;;9.30;;
4148;SDS011;2088;51.032;7.082;2024-03-08T08:28:04;23.60;;;10.53;;
4148;SDS011;2088;51.032;7.082;2024-03-08T08:30:31;18.60;;;9.90;;
4148;SDS011;2088;51.032;7.082;2024-03-08T08:32:59;19.60;;;9.30;;
4148;SDS011;2088;51.032;7.082;2024-03-08T08:35:26;23.17;;;10.97;;
4148;SDS011;2088;51.032;7.082;2024-03-08T08:37:53;18.47;;;9.40;;
4148;SDS011;2088;51.032;7.082;2024-03-08T08:40:22;26.20;;;10.90;;
4148;SDS011;2088;51.032;7.082;2024-03-08T08:42:49;29.77;;;9.10;;
4148;SDS011;2088;51.032;7.082;2024-03-08T08:45:18;18.00;;;9.30;;
4148;SDS011;2088;51.032;7.082;2024-03-08T08:47:45;25.57;;;9.50;;
4148;SDS011;2088;51.032;7.082;2024-03-08T08:50:12;19.17;;;11.03;;
4148;SDS011;2088;51.032;7.082;2024-03-08T08:52:41;19.13;;;9.20;;
4148;SDS011;2088;51.032;7.082;2024-03-08T08:55:09;17.43;;;10.10;;
4148;SDS011;2088;51.032;7.082;2024-03-08T08:57:41;21.47;;;10.33;;
4148;SDS011;2088;51.032;7.082;2024-03-08T09:00:09;23.90;;;10.00;;
4148;SDS011;2088;51.032;7.082;2024-03-08T09:02:40;22.13;;;10.80;;
4148;SDS011;2088;51.032;7.082;2024-03-08T09:05:07;22.60;;;10.50;;
4148;SDS011;2088;51.032;7.082;2024-03-08T09:07:34;15.60;;;8.27;;
4148;SDS011;2088;51.032;7.082;2024-03-08T09:10:01;17.07;;;9.57;;
4148;SDS011;2088;51.032;7.082;2024-03-08T09:12:28;24.47;;;8.93;;
4148;SDS011;2088;51.032;7.082;2024-03-08T09:14:59;20.93;;;9.80;;
4148;SDS011;2088;51.032;7.082;2024-03-08T09:17:26;14.43;;;8.70;;
4148;SDS011;2088;51.032;7.082;2024-03-08T09:19:53;18.37;;;9.07;;
4148;SDS011;2088;51.032;7.082;2024-03-08T09:22:20;19.77;;;9.00;;
4148;SDS011;2088;51.032;7.082;2024-03-08T09:24:47;20.10;;;8.93;;
4148;SDS011;2088;51.032;7.082;2024-03-08T09:27:14;21.17;;;8.57;;
4148;SDS011;2088;51.032;7.082;2024-03-08T09:29:43;15.03;;;8.43;;
4148;SDS011;2088;51.032;7.082;2024-03-08T09:32:11;18.70;;;10.67;;
4148;SDS011;2088;51.032;7.082;2024-03-08T09:34:38;19.33;;;8.07;;
4148;SDS011;2088;51.032;7.082;2024-03-08T09:37:05;16.00;;;9.17;;
4148;SDS011;2088;51.032;7.082;2024-03-08T09:39:33;17.87;;;9.17;;
4148;SDS011;2088;51.032;7.082;2024-03-08T09:42:00;11.33;;;6.93;;
4148;SDS011;2088;51.032;7.082;2024-03-08T09:44:28;13.50;;;8.00;;
4148;SDS011;2088;51.032;7.082;2024-03-08T09:46:55;17.10;;;8.40;;
4148;SDS011;2088;51.032;7.082;2024-03-08T09:49:24;15.67;;;8.07;;
4148;SDS011;2088;51.032;7.082;2024-03-08T09:51:51;13.93;;;8.30;;
4148;SDS011;2088;51.032;7.082;2024-03-08T09:54:18;20.07;;;10.57;;
4148;SDS011;2088;51.032;7.082;2024-03-08T09:56:47;15.87;;;8.43;;
4148;SDS011;2088;51.032;7.082;2024-03-08T09:59:14;17.10;;;8.83;;
4148;SDS011;2088;51.032;7.082;2024-03-08T10:02:06;13.13;;;7.20;;
4148;SDS011;2088;51.032;7.082;2024-03-08T10:04:35;22.97;;;9.47;;
4148;SDS011;2088;51.032;7.082;2024-03-08T10:07:02;20.43;;;9.43;;
4148;SDS011;2088;51.032;7.082;2024-03-08T10:09:29;15.07;;;7.67;;
4148;SDS011;2088;51.032;7.082;2024-03-08T10:11:57;16.10;;;8.27;;
4148;SDS011;2088;51.032;7.082;2024-03-08T10:14:24;18.87;;;8.00;;
4148;SDS011;2088;51.032;7.082;2024-03-08T10:16:51;16.27;;;7.43;;
4148;SDS011;2088;51.032;7.082;2024-03-08T10:19:19;15.30;;;8.03;;
4148;SDS011;2088;51.032;7.082;2024-03-08T10:21:50;13.90;;;7.53;;
4148;SDS011;2088;51.032;7.082;2024-03-08T10:24:19;16.60;;;8.73;;
4148;SDS011;2088;51.032;7.082;2024-03-08T10:26:46;13.97;;;7.40;;
4148;SDS011;2088;51.032;7.082;2024-03-08T10:29:13;13.63;;;8.40;;
4148;SDS011;2088;51.032;7.082;2024-03-08T10:31:42;21.10;;;8.17;;
4148;SDS011;2088;51.032;7.082;2024-03-08T10:34:10;19.20;;;8.43;;
4148;SDS011;2088;51.032;7.082;2024-03-08T10:36:37;14.00;;;8.37;;
4148;SDS011;2088;51.032;7.082;2024-03-08T10:39:10;18.50;;;8.87;;
4148;SDS011;2088;51.032;7.082;2024-03-08T10:41:39;13.23;;;7.30;;
4148;SDS011;2088;51.032;7.082;2024-03-08T10:44:10;14.63;;;8.57;;
4148;SDS011;2088;51.032;7.082;2024-03-08T10:46:47;16.07;;;8.07;;
4148;SDS011;2088;51.032;7.082;2024-03-08T10:49:20;15.33;;;7.37;;
4148;SDS011;2088;51.032;7.082;2024-03-08T10:51:51;13.10;;;6.70;;
4148;SDS011;2088;51.032;7.082;2024-03-08T10:54:20;12.23;;;7.67;;
4148;SDS011;2088;51.032;7.082;2024-03-08T10:56:49;14.03;;;7.70;;
4148;SDS011;2088;51.032;7.082;2024-03-08T10:59:17;12.30;;;6.43;;
4148;SDS011;2088;51.032;7.082;2024-03-08T11:01:44;12.97;;;7.50;;
4148;SDS011;2088;51.032;7.082;2024-03-08T11:04:11;12.00;;;7.83;;
4148;SDS011;2088;51.032;7.082;2024-03-08T11:06:42;13.63;;;6.60;;
4148;SDS011;2088;51.032;7.082;2024-03-08T11:09:11;14.83;;;7.43;;
4148;SDS011;2088;51.032;7.082;2024-03-08T11:14:43;12.27;;;7.10;;
4148;SDS011;2088;51.032;7.082;2024-03-08T11:17:12;13.20;;;7.23;;
4148;SDS011;2088;51.032;7.082;2024-03-08T11:19:45;11.70;;;7.50;;
4148;SDS011;2088;51.032;7.082;2024-03-08T11:22:19;10.90;;;7.27;;
4148;SDS011;2088;51.032;7.082;2024-03-08T11:24:48;15.80;;;7.50;;
4148;SDS011;2088;51.032;7.082;2024-03-08T11:27:15;9.90;;;6.73;;
4148;SDS011;2088;51.032;7.082;2024-03-08T11:29:44;10.53;;;7.27;;
4148;SDS011;2088;51.032;7.082;2024-03-08T11:32:11;8.53;;;6.33;;
4148;SDS011;2088;51.032;7.082;2024-03-08T11:34:39;13.97;;;7.20;;
4148;SDS011;2088;51.032;7.082;2024-03-08T11:37:10;16.70;;;6.87;;
4148;SDS011;2088;51.032;7.082;2024-03-08T11:39:38;14.30;;;7.67;;
4148;SDS011;2088;51.032;7.082;2024-03-08T11:42:05;15.93;;;8.33;;
4148;SDS011;2088;51.032;7.082;2024-03-08T11:44:33;13.27;;;8.10;;
4148;SDS011;2088;51.032;7.082;2024-03-08T11:47:02;11.43;;;6.60;;
4148;SDS011;2088;51.032;7.082;2024-03-08T11:49:31;18.50;;;7.73;;
4148;SDS011;2088;51.032;7.082;2024-03-08T11:51:59;11.53;;;6.63;;
4148;SDS011;2088;51.032;7.082;2024-03-08T11:54:26;12.83;;;7.07;;
4148;SDS011;2088;51.032;7.082;2024-03-08T11:56:54;15.70;;;8.27;;
4148;SDS011;2088;51.032;7.082;2024-03-08T11:59:25;9.10;;;6.87;;
4148;SDS011;2088;51.032;7.082;2024-03-08T12:01:58;13.57;;;7.27;;
4148;SDS011;2088;51.032;7.082;2024-03-08T12:04:28;13.13;;;7.50;;
4148;SDS011;2088;51.032;7.082;2024-03-08T12:06:56;8.70;;;5.80;;
4148;SDS011;2088;51.032;7.082;2024-03-08T12:09:23;14.73;;;6.40;;
4148;SDS011;2088;51.032;7.082;2024-03-08T12:11:50;9.43;;;6.50;;
4148;SDS011;2088;51.032;7.082;2024-03-08T12:14:17;17.10;;;6.40;;
4148;SDS011;2088;51.032;7.082;2024-03-08T12:16:45;12.20;;;7.10;;
4148;SDS011;2088;51.032;7.082;2024-03-08T12:19:13;12.40;;;7.23;;
4148;SDS011;2088;51.032;7.082;2024-03-08T12:21:43;10.97;;;7.13;;
4148;SDS011;2088;51.032;7.082;2024-03-08T12:24:14;10.07;;;6.60;;
4148;SDS011;2088;51.032;7.082;2024-03-08T12:26:41;11.87;;;7.70;;
4148;SDS011;2088;51.032;7.082;2024-03-08T12:29:15;10.40;;;6.40;;
4148;SDS011;2088;51.032;7.082;2024-03-08T12:31:45;11.00;;;6.83;;
4148;SDS011;2088;51.032;7.082;2024-03-08T12:34:12;11.93;;;6.90;;
4148;SDS011;2088;51.032;7.082;2024-03-08T12:36:44;11.00;;;7.10;;
4148;SDS011;2088;51.032;7.082;2024-03-08T12:39:13;11.00;;;6.90;;
4148;SDS011;2088;51.032;7.082;2024-03-08T12:41:41;9.73;;;5.83;;
4148;SDS011;2088;51.032;7.082;2024-03-08T12:44:08;11.40;;;6.00;;
4148;SDS011;2088;51.032;7.082;2024-03-08T12:46:36;12.97;;;6.33;;
4148;SDS011;2088;51.032;7.082;2024-03-08T12:49:05;11.43;;;6.97;;
4148;SDS011;2088;51.032;7.082;2024-03-08T12:51:32;11.00;;;7.20;;
4148;SDS011;2088;51.032;7.082;2024-03-08T12:54:01;10.57;;;6.03;;
4148;SDS011;2088;51.032;7.082;2024-03-08T12:56:29;9.47;;;6.13;;
4148;SDS011;2088;51.032;7.082;2024-03-08T12:58:58;14.27;;;8.23;;
4148;SDS011;2088;51.032;7.082;2024-03-08T13:01:26;6.73;;;5.60;;
4148;SDS011;2088;51.032;7.082;2024-03-08T13:03:53;9.30;;;6.13;;
4148;SDS011;2088;51.032;7.082;2024-03-08T13:06:21;9.70;;;5.70;;
4148;SDS011;2088;51.032;7.082;2024-03-08T13:08:49;9.70;;;6.30;;
4148;SDS011;2088;51.032;7.082;2024-03-08T13:11:18;8.00;;;6.20;;
4148;SDS011;2088;51.032;7.082;2024-03-08T13:13:46;13.37;;;7.20;;
4148;SDS011;2088;51.032;7.082;2024-03-08T13:16:13;9.73;;;5.73;;
4148;SDS011;2088;51.032;7.082;2024-03-08T13:18:42;10.20;;;6.70;;
4148;SDS011;2088;51.032;7.082;2024-03-08T13:21:09;12.97;;;7.63;;
4148;SDS011;2088;51.032;7.082;2024-03-08T13:23:39;11.80;;;7.47;;
4148;SDS011;2088;51.032;7.082;2024-03-08T13:26:10;12.07;;;7.30;;
4148;SDS011;2088;51.032;7.082;2024-03-08T13:28:41;14.23;;;6.40;;
4148;SDS011;2088;51.032;7.082;2024-03-08T13:31:08;14.63;;;6.73;;
4148;SDS011;2088;51.032;7.082;2024-03-08T13:33:36;16.63;;;7.70;;
4148;SDS011;2088;51.032;7.082;2024-03-08T13:36:04;11.30;;;6.90;;
4148;SDS011;2088;51.032;7.082;2024-03-08T13:38:39;11.43;;;7.00;;
4148;SDS011;2088;51.032;7.082;2024-03-08T13:41:07;11.13;;;6.73;;
4148;SDS011;2088;51.032;7.082;2024-03-08T13:43:34;9.63;;;6.17;;
4148;SDS011;2088;51.032;7.082;2024-03-08T13:46:03;11.10;;;7.17;;
4148;SDS011;2088;51.032;7.082;2024-03-08T13:48:32;11.67;;;7.50;;
4148;SDS011;2088;51.032;7.082;2024-03-08T13:50:59;12.70;;;7.93;;
4148;SDS011;2088;51.032;7.082;2024-03-08T13:53:26;9.60;;;6.97;;
4148;SDS011;2088;51.032;7.082;2024-03-08T13:55:53;17.63;;;8.63;;
4148;SDS011;2088;51.032;7.082;2024-03-08T13:58:21;11.67;;;7.40;;
4148;SDS011;2088;51.032;7.082;2024-03-08T14:00:49;11.13;;;7.20;;
4148;SDS011;2088;51.032;7.082;2024-03-08T14:03:18;15.63;;;7.10;;
4148;SDS011;2088;51.032;7.082;2024-03-08T14:05:46;20.80;;;8.90;;
4148;SDS011;2088;51.032;7.082;2024-03-08T14:08:13;11.13;;;6.40;;
4148;SDS011;2088;51.032;7.082;2024-03-08T14:10:41;11.20;;;6.90;;
4148;SDS011;2088;51.032;7.082;2024-03-08T14:13:08;13.40;;;7.70;;
4148;SDS011;2088;51.032;7.082;2024-03-08T14:15:36;14.93;;;8.40;;
4148;SDS011;2088;51.032;7.082;2024-03-08T14:18:07;12.43;;;8.30;;
4148;SDS011;2088;51.032;7.082;2024-03-08T14:20:35;12.03;;;8.03;;
4148;SDS011;2088;51.032;7.082;2024-03-08T14:23:02;11.10;;;8.43;;
4148;SDS011;2088;51.032;7.082;2024-03-08T14:25:31;12.00;;;7.50;;
4148;SDS011;2088;51.032;7.082;2024-03-08T14:27:58;19.27;;;8.93;;
4148;SDS011;2088;51.032;7.082;2024-03-08T14:30:28;11.60;;;7.27;;
4148;SDS011;2088;51.032;7.082;2024-03-08T14:32:59;15.93;;;8.27;;
4148;SDS011;2088;51.032;7.082;2024-03-08T14:35:26;11.77;;;7.53;;
4148;SDS011;2088;51.032;7.082;2024-03-08T14:37:55;13.20;;;7.53;;
4148;SDS011;2088;51.032;7.082;2024-03-08T14:40:23;15.00;;;7.80;;
4148;SDS011;2088;51.032;7.082;2024-03-08T14:42:51;19.60;;;8.93;;
4148;SDS011;2088;51.032;7.082;2024-03-08T14:45:18;11.50;;;7.30;;
4148;SDS011;2088;51.032;7.082;2024-03-08T14:47:45;13.07;;;7.70;;
4148;SDS011;2088;51.032;7.082;2024-03-08T14:50:14;12.10;;;8.70;;
4148;SDS011;2088;51.032;7.082;2024-03-08T14:52:42;13.60;;;9.37;;
4148;SDS011;2088;51.032;7.082;2024-03-08T14:55:10;17.10;;;9.17;;
4148;SDS011;2088;51.032;7.082;2024-03-08T14:57:39;10.80;;;7.30;;
4148;SDS011;2088;51.032;7.082;2024-03-08T15:00:07;16.17;;;7.33;;
4148;SDS011;2088;51.032;7.082;2024-03-08T15:02:41;13.47;;;7.47;;
4148;SDS011;2088;51.032;7.082;2024-03-08T15:05:08;12.67;;;8.67;;